Time;durP1;ratioP1;P1;durP2;ratioP2;P2;SDS_P1;SDS_P2;PMS_P1;PMS_P2;Temp;Humidity;BMP_temperature;BMP_pressure;BME280_temperature;BME280_humidity;BME280_pressure;Samples;Min_cycle;Max_cycle;Signal;HPM_P1;HPM_P2
2021/03/27 00:00:21;;;;;;;10.63;7.97;;;11.50;96.50;;;;;;5030760;28;20463;-47
2021/03/27 00:02:53;;;;;;;14.03;8.07;;;11.40;96.40;;;;;;5030735;28;20445;-47
2021/03/27 00:05:24;;;;;;;10.13;8.30;;;11.20;97.10;;;;;;5030322;28;20453;-47
2021/03/27 00:08:04;;;;;;;12.47;8.13;;;11.10;97.30;;;;;;5030379;28;20449;-47
2021/03/27 00:10:36;;;;;;;11.00;7.60;;;11.20;97.40;;;;;;5030066;28;20530;-47
2021/03/27 00:13:15;;;;;;;13.17;8.50;;;11.30;97.30;;;;;;5030458;28;20445;-47
2021/03/27 00:15:51;;;;;;;17.30;8.40;;;11.30;97.30;;;;;;5028995;28;20452;-47
2021/03/27 00:18:22;;;;;;;12.93;8.23;;;11.20;98.10;;;;;;5030393;28;20452;-47
2021/03/27 00:20:55;;;;;;;15.07;9.00;;;11.00;98.70;;;;;;5030397;28;20453;-47
2021/03/27 00:23:25;;;;;;;13.60;9.10;;;10.70;99.00;;;;;;5029127;28;20453;-47
2021/03/27 00:25:56;;;;;;;13.57;8.30;;;10.60;99.10;;;;;;5030362;28;20468;-47
2021/03/27 00:28:29;;;;;;;13.57;8.57;;;10.60;99.40;;;;;;5027474;28;20433;-48
2021/03/27 00:31:00;;;;;;;21.33;10.10;;;10.60;99.90;;;;;;5021194;28;20496;-47
2021/03/27 00:33:28;;;;;;;14.67;9.20;;;10.80;99.30;;;;;;5030562;28;20460;-47
2021/03/27 00:35:58;;;;;;;14.40;9.93;;;10.60;99.70;;;;;;5029499;28;20480;-47
2021/03/27 00:38:33;;;;;;;16.23;9.67;;;10.70;99.70;;;;;;5030572;28;20445;-47
2021/03/27 00:41:01;;;;;;;10.23;7.97;;;10.70;99.70;;;;;;5030699;28;20440;-46
2021/03/27 00:43:31;;;;;;;12.27;8.23;;;10.90;99.50;;;;;;5030873;28;20448;-47
2021/03/27 00:46:01;;;;;;;14.50;8.60;;;11.00;99.10;;;;;;5029898;28;20559;-47
2021/03/27 00:48:31;;;;;;;11.73;7.70;;;10.90;99.50;;;;;;5030229;28;20479;-47
2021/03/27 00:51:02;;;;;;;14.60;8.77;;;10.90;99.90;;;;;;5029553;28;20484;-47
2021/03/27 00:53:36;;;;;;;14.10;9.03;;;11.00;99.70;;;;;;5030366;28;20459;-47
2021/03/27 00:56:09;;;;;;;17.43;8.90;;;11.00;99.70;;;;;;5030381;28;20474;-47
2021/03/27 00:58:41;;;;;;;13.23;8.60;;;10.90;99.40;;;;;;5034753;28;20460;-47
2021/03/27 01:01:09;;;;;;;10.20;7.23;;;10.90;99.50;;;;;;5034418;28;20797;-47
2021/03/27 01:03:40;;;;;;;11.67;7.80;;;10.90;99.60;;;;;;5034273;28;20514;-47
2021/03/27 01:06:14;;;;;;;10.70;8.17;;;10.80;99.80;;;;;;5017756;28;20479;-47
2021/03/27 01:08:46;;;;;;;11.60;8.83;;;10.90;99.90;;;;;;5034278;28;20458;-47
2021/03/27 01:11:20;;;;;;;15.77;10.03;;;10.60;99.90;;;;;;5034045;28;20491;-47
2021/03/27 01:13:50;;;;;;;13.30;8.93;;;10.20;99.90;;;;;;5033886;28;20510;-47
2021/03/27 01:16:25;;;;;;;14.93;8.93;;;10.10;99.90;;;;;;5033779;28;20461;-47
2021/03/27 01:18:56;;;;;;;11.73;8.53;;;10.00;99.90;;;;;;5034109;28;20451;-47
2021/03/27 01:21:27;;;;;;;14.40;9.23;;;10.10;99.90;;;;;;5033617;28;20448;-47
2021/03/27 01:24:00;;;;;;;13.00;9.53;;;10.20;99.90;;;;;;5033546;28;20448;-47
2021/03/27 01:26:30;;;;;;;12.13;9.50;;;10.30;99.90;;;;;;5033137;28;20479;-46
2021/03/27 01:29:02;;;;;;;13.07;9.23;;;10.30;99.90;;;;;;5034213;28;20464;-47
2021/03/27 01:31:38;;;;;;;15.30;9.80;;;10.30;99.90;;;;;;5033755;28;20484;-47
2021/03/27 01:34:11;;;;;;;15.77;10.07;;;10.40;99.90;;;;;;5033183;28;20539;-47
2021/03/27 01:36:43;;;;;;;15.43;9.47;;;10.40;99.90;;;;;;5033347;28;20476;-47
2021/03/27 01:39:14;;;;;;;15.70;9.67;;;10.50;99.90;;;;;;5033549;28;20973;-47
2021/03/27 01:41:55;;;;;;;14.10;9.50;;;10.60;99.90;;;;;;5033623;28;20439;-47
2021/03/27 01:44:48;;;;;;;16.63;9.60;;;10.50;99.90;;;;;;5033635;28;20510;-47
2021/03/27 01:47:25;;;;;;;13.40;9.20;;;10.60;99.90;;;;;;5032802;28;21075;-47
2021/03/27 01:50:21;;;;;;;15.80;8.60;;;10.50;99.90;;;;;;5032894;28;20992;-47
2021/03/27 01:52:59;;;;;;;15.47;9.13;;;10.50;99.90;;;;;;5032504;28;21221;-46
2021/03/27 01:55:39;;;;;;;13.77;9.00;;;10.20;99.90;;;;;;5033021;28;20535;-47
2021/03/27 01:58:12;;;;;;;16.77;9.17;;;9.90;99.90;;;;;;5033502;28;20509;-47
2021/03/27 02:00:43;;;;;;;14.73;9.07;;;9.90;99.90;;;;;;5032596;28;20456;-47
2021/03/27 02:03:15;;;;;;;19.27;9.60;;;9.90;99.90;;;;;;5033008;28;20445;-47
2021/03/27 02:05:47;;;;;;;13.60;8.90;;;10.00;99.90;;;;;;5032189;28;20444;-47
2021/03/27 02:08:18;;;;;;;12.70;8.50;;;9.90;99.90;;;;;;5013456;28;20457;-47
2021/03/27 02:11:02;;;;;;;10.10;7.40;;;9.90;99.90;;;;;;5031841;28;20480;-47
2021/03/27 02:13:37;;;;;;;13.17;8.10;;;9.80;99.90;;;;;;5032645;28;20455;-48
2021/03/27 02:16:12;;;;;;;13.67;7.40;;;9.90;99.90;;;;;;5032371;28;20468;-47
2021/03/27 02:18:44;;;;;;;10.87;8.10;;;10.00;99.90;;;;;;5032911;28;20496;-47
2021/03/27 02:21:50;;;;;;;10.67;7.23;;;10.00;99.90;;;;;;5032515;28;20464;-46
2021/03/27 02:24:37;;;;;;;12.33;7.90;;;9.90;99.90;;;;;;5029162;28;20476;-47
2021/03/27 02:27:10;;;;;;;13.70;7.93;;;9.90;99.90;;;;;;5032235;28;20465;-46
2021/03/27 02:30:05;;;;;;;11.90;7.73;;;9.90;99.90;;;;;;5032807;28;20455;-47
2021/03/27 02:33:19;;;;;;;12.27;8.10;;;9.90;99.90;;;;;;5032171;28;20448;-47
2021/03/27 02:35:55;;;;;;;15.87;8.20;;;10.10;99.90;;;;;;4985026;28;20486;-47
2021/03/27 02:38:32;;;;;;;12.03;7.77;;;10.00;99.90;;;;;;5032966;28;20448;-46
2021/03/27 02:41:08;;;;;;;13.63;7.83;;;10.30;99.90;;;;;;5032648;28;20956;-47
2021/03/27 02:43:39;;;;;;;11.90;8.20;;;10.50;99.90;;;;;;5032469;28;20452;-47
2021/03/27 02:46:15;;;;;;;16.93;8.17;;;10.40;99.90;;;;;;5032089;28;20472;-47
2021/03/27 02:48:50;;;;;;;14.77;8.30;;;10.50;99.90;;;;;;5032426;28;20456;-47
2021/03/27 02:51:23;;;;;;;12.97;8.63;;;10.50;99.90;;;;;;5031928;28;20482;-46
2021/03/27 02:54:10;;;;;;;15.03;8.30;;;10.40;99.90;;;;;;5032128;28;20949;-47
2021/03/27 02:56:52;;;;;;;12.17;7.70;;;10.20;99.90;;;;;;5032023;28;21031;-46
2021/03/27 02:59:34;;;;;;;13.07;8.50;;;10.00;99.90;;;;;;5032233;28;20555;-48
2021/03/27 03:02:08;;;;;;;11.47;8.20;;;10.00;99.90;;;;;;5032015;28;20476;-47
2021/03/27 03:04:43;;;;;;;11.37;7.60;;;10.00;99.90;;;;;;5031766;28;20456;-47
2021/03/27 03:07:19;;;;;;;10.70;7.87;;;10.00;99.90;;;;;;5032314;28;20471;-47
2021/03/27 03:09:53;;;;;;;12.33;8.03;;;10.10;99.90;;;;;;5031535;28;21111;-46
2021/03/27 03:12:24;;;;;;;11.93;7.90;;;10.00;99.90;;;;;;5031949;28;20452;-47
2021/03/27 03:14:58;;;;;;;11.13;7.50;;;10.00;99.90;;;;;;5031519;28;20518;-47
2021/03/27 03:17:34;;;;;;;9.57;7.17;;;10.00;99.90;;;;;;5031639;28;20984;-47
2021/03/27 03:20:12;;;;;;;10.43;7.00;;;10.00;99.90;;;;;;5031723;28;20549;-47
2021/03/27 03:29:39;;;;;;;11.37;7.33;;;9.90;99.90;;;;;;5030193;28;20419;-46
2021/03/27 03:32:11;;;;;;;11.20;6.83;;;9.80;99.90;;;;;;5031357;28;20441;-46
2021/03/27 03:34:54;;;;;;;9.30;6.33;;;9.90;99.90;;;;;;5031551;28;20444;-47
2021/03/27 03:37:32;;;;;;;12.50;7.63;;;9.70;99.90;;;;;;5065705;22;20499;-48
2021/03/27 03:40:13;;;;;;;11.43;6.90;;;9.70;99.90;;;;;;5051587;28;20446;-47
2021/03/27 03:43:11;;;;;;;13.90;7.80;;;9.80;99.90;;;;;;5051236;28;20456;-48
2021/03/27 03:45:48;;;;;;;10.63;6.93;;;9.80;99.90;;;;;;5039287;28;20463;-48
2021/03/27 03:51:55;;;;;;;12.60;7.83;;;9.70;99.90;;;;;;5017562;28;20468;-48
2021/03/27 03:54:26;;;;;;;10.67;7.47;;;9.70;99.90;;;;;;5011538;28;20472;-47
2021/03/27 03:56:59;;;;;;;10.57;7.03;;;9.90;99.90;;;;;;5025554;28;20494;-48
2021/03/27 03:59:41;;;;;;;9.50;6.63;;;9.90;99.90;;;;;;5030697;28;20455;-47
2021/03/27 04:02:21;;;;;;;10.20;7.23;;;9.90;99.90;;;;;;5011624;28;20448;-47
2021/03/27 04:04:51;;;;;;;12.23;7.40;;;9.90;99.90;;;;;;5020303;28;20876;-47
2021/03/27 04:07:22;;;;;;;11.17;7.07;;;10.00;99.90;;;;;;5030611;28;20476;-47
2021/03/27 04:09:54;;;;;;;11.50;7.23;;;9.90;99.90;;;;;;5020923;28;20510;-48
2021/03/27 04:12:26;;;;;;;12.90;7.70;;;9.80;99.90;;;;;;5029585;28;20900;-48
2021/03/27 04:15:08;;;;;;;9.87;6.70;;;9.90;99.90;;;;;;5029775;28;20510;-48
2021/03/27 04:17:43;;;;;;;9.67;6.30;;;9.90;99.90;;;;;;5029173;28;20531;-48
2021/03/27 04:20:16;;;;;;;11.00;7.00;;;10.00;99.90;;;;;;5016999;28;20858;-48
2021/03/27 04:22:45;;;;;;;9.27;6.73;;;10.00;99.90;;;;;;5011338;28;20503;-48
2021/03/27 04:25:27;;;;;;;10.23;6.53;;;10.00;99.90;;;;;;5025862;28;20452;-48
2021/03/27 04:28:03;;;;;;;10.30;6.23;;;10.10;99.90;;;;;;5029175;28;20498;-48
2021/03/27 04:30:36;;;;;;;10.30;6.47;;;10.40;99.90;;;;;;5029215;28;20480;-48
2021/03/27 04:33:12;;;;;;;10.33;6.40;;;10.10;99.90;;;;;;5029564;28;21011;-48
2021/03/27 04:35:54;;;;;;;11.67;7.00;;;10.10;99.90;;;;;;5013576;28;20824;-47
2021/03/27 04:38:31;;;;;;;9.13;6.70;;;10.10;99.90;;;;;;5015431;28;20491;-48
2021/03/27 04:41:05;;;;;;;10.10;6.60;;;10.20;99.90;;;;;;5018566;28;20436;-48
2021/03/27 04:43:38;;;;;;;10.33;5.97;;;10.10;99.90;;;;;;5015239;28;20852;-48
2021/03/27 04:46:12;;;;;;;5.90;4.33;;;10.00;99.90;;;;;;5011044;28;20455;-48
2021/03/27 04:48:42;;;;;;;6.80;4.10;;;10.00;99.90;;;;;;5020699;28;20447;-47
2021/03/27 04:51:27;;;;;;;4.80;3.70;;;10.00;99.90;;;;;;5011019;28;20551;-47
2021/03/27 04:54:03;;;;;;;4.60;3.53;;;10.00;99.90;;;;;;5011260;28;20445;-47
2021/03/27 04:56:36;;;;;;;6.63;3.97;;;10.00;99.90;;;;;;5017344;28;20484;-48
2021/03/27 04:59:10;;;;;;;4.43;3.30;;;9.90;99.90;;;;;;5018759;28;20449;-47
2021/03/27 05:01:46;;;;;;;4.37;3.30;;;9.80;99.90;;;;;;5018727;28;20449;-48
2021/03/27 05:04:16;;;;;;;4.60;3.70;;;9.80;99.90;;;;;;5020347;28;20455;-48
2021/03/27 05:06:49;;;;;;;3.27;2.87;;;9.70;99.90;;;;;;5022283;28;20894;-47
2021/03/27 05:09:47;;;;;;;6.33;4.80;;;9.80;99.90;;;;;;5013497;28;20457;-47
2021/03/27 05:12:18;;;;;;;1.63;1.50;;;9.70;99.90;;;;;;5022683;28;20540;-47
2021/03/27 05:15:08;;;;;;;2.30;1.50;;;9.50;99.90;;;;;;5014674;28;20468;-47
2021/03/27 05:17:57;;;;;;;2.10;1.70;;;9.50;99.90;;;;;;5014994;28;20461;-47
2021/03/27 05:20:28;;;;;;;1.40;1.30;;;9.50;99.90;;;;;;4984091;28;20448;-47
2021/03/27 05:23:04;;;;;;;1.67;1.27;;;9.50;99.90;;;;;;5029463;28;20857;-47
2021/03/27 05:25:45;;;;;;;1.27;1.10;;;9.50;99.90;;;;;;5025448;28;20829;-47
2021/03/27 05:28:35;;;;;;;1.40;1.20;;;9.60;99.90;;;;;;5010770;28;20492;-47
2021/03/27 05:31:10;;;;;;;2.07;1.63;;;9.60;99.90;;;;;;5029087;28;20494;-47
2021/03/27 05:33:45;;;;;;;1.57;1.40;;;9.80;99.90;;;;;;5013676;28;20452;-47
2021/03/27 05:36:27;;;;;;;1.50;1.40;;;9.90;99.90;;;;;;5017174;28;20521;-48
2021/03/27 05:39:00;;;;;;;0.90;0.90;;;10.00;99.90;;;;;;5022020;28;20446;-47
2021/03/27 05:41:57;;;;;;;0.90;0.90;;;10.10;99.90;;;;;;5024524;28;20457;-47
2021/03/27 05:45:06;;;;;;;1.07;0.70;;;10.00;99.90;;;;;;5014643;28;20487;-47
2021/03/27 05:48:18;;;;;;;1.53;1.00;;;9.80;99.90;;;;;;5026601;28;20460;-47
2021/03/27 05:51:14;;;;;;;1.37;1.13;;;9.50;99.90;;;;;;5019929;28;20498;-47
2021/03/27 05:54:04;;;;;;;1.43;1.33;;;9.30;99.90;;;;;;5015595;28;20460;-47
2021/03/27 05:56:54;;;;;;;3.60;1.00;;;9.20;99.90;;;;;;5027741;28;20479;-47
2021/03/27 05:59:52;;;;;;;0.80;0.80;;;9.20;99.90;;;;;;5013874;28;20441;-47
2021/03/27 06:02:36;;;;;;;0.77;0.77;;;9.40;99.90;;;;;;5019787;28;21181;-48
2021/03/27 06:05:35;;;;;;;2.10;0.70;;;9.40;99.90;;;;;;5014101;28;21187;-47
2021/03/27 06:08:28;;;;;;;0.80;0.70;;;9.40;99.90;;;;;;5013326;28;20469;-47
2021/03/27 06:11:07;;;;;;;0.83;0.70;;;9.40;99.90;;;;;;5013303;28;20864;-47
2021/03/27 06:14:20;;;;;;;0.80;0.67;;;9.50;99.90;;;;;;5013637;28;20449;-47
2021/03/27 06:17:09;;;;;;;0.80;0.80;;;9.40;99.90;;;;;;5013507;28;20548;-47
2021/03/27 06:20:16;;;;;;;1.70;1.00;;;9.50;99.90;;;;;;5024997;28;20506;-49
2021/03/27 06:23:08;;;;;;;1.13;1.03;;;9.20;99.90;;;;;;5032010;28;20476;-47
2021/03/27 06:25:48;;;;;;;2.30;1.20;;;9.20;99.90;;;;;;4992778;28;20452;-47
2021/03/27 06:28:30;;;;;;;2.20;1.20;;;9.10;99.90;;;;;;5030502;28;20448;-47
2021/03/27 06:31:31;;;;;;;1.80;1.00;;;8.90;99.90;;;;;;5032067;28;20491;-47
2021/03/27 06:34:30;;;;;;;1.00;0.90;;;8.70;99.90;;;;;;5028716;28;20453;-48
2021/03/27 06:37:23;;;;;;;1.53;0.80;;;8.70;99.90;;;;;;5028727;28;20518;-48
2021/03/27 06:40:16;;;;;;;1.20;0.60;;;8.40;99.90;;;;;;5032950;28;20446;-47
2021/03/27 06:43:09;;;;;;;0.70;0.70;;;8.20;99.90;;;;;;5013034;28;20828;-48
2021/03/27 06:53:10;;;;;;;0.70;0.70;;;7.80;99.90;;;;;;5032213;28;20864;-48
2021/03/27 06:56:05;;;;;;;0.70;0.60;;;7.70;99.90;;;;;;5032307;28;20530;-48
2021/03/27 06:59:21;;;;;;;0.80;0.70;;;7.70;99.90;;;;;;5017668;28;20445;-47
2021/03/27 07:02:32;;;;;;;1.60;0.80;;;7.70;99.90;;;;;;5021464;28;20440;-48
2021/03/27 07:06:08;;;;;;;2.00;1.00;;;7.60;99.90;;;;;;5023692;28;20447;-47
2021/03/27 07:09:16;;;;;;;0.77;0.70;;;7.50;99.90;;;;;;5012122;28;20997;-47
2021/03/27 07:12:04;;;;;;;1.90;0.70;;;7.40;99.90;;;;;;5011850;28;20480;-47
2021/03/27 07:15:11;;;;;;;10.10;0.83;;;7.40;99.90;;;;;;5030228;28;20456;-48
2021/03/27 07:17:45;;;;;;;2.47;0.77;;;7.40;99.90;;;;;;4982836;28;20468;-47
2021/03/27 07:20:34;;;;;;;0.70;0.70;;;7.40;99.90;;;;;;5029978;28;20454;-47
2021/03/27 07:23:27;;;;;;;2.97;0.70;;;7.40;99.90;;;;;;5029957;28;20547;-47
2021/03/27 07:26:22;;;;;;;0.87;0.70;;;7.40;99.90;;;;;;4976490;28;20867;-47
2021/03/27 07:29:30;;;;;;;1.43;0.60;;;7.50;99.90;;;;;;5011748;28;20867;-47
2021/03/27 07:32:25;;;;;;;0.80;0.63;;;7.40;99.90;;;;;;5026857;28;20481;-47
2021/03/27 07:35:02;;;;;;;1.03;0.70;;;7.50;99.90;;;;;;5019535;28;20487;-47
2021/03/27 07:38:06;;;;;;;2.90;0.77;;;7.50;99.90;;;;;;5029467;28;20476;-48
2021/03/27 07:40:43;;;;;;;1.10;0.70;;;7.60;99.90;;;;;;5029691;28;20445;-48
2021/03/27 07:43:52;;;;;;;0.60;0.60;;;7.70;99.90;;;;;;5029638;28;20445;-47
2021/03/27 07:46:29;;;;;;;3.43;0.87;;;7.60;99.90;;;;;;5021970;28;20559;-47
2021/03/27 07:49:23;;;;;;;0.97;0.70;;;7.60;99.90;;;;;;5029043;28;20444;-47
2021/03/27 07:52:07;;;;;;;0.70;0.63;;;7.90;99.90;;;;;;4975454;28;20487;-48
2021/03/27 07:55:20;;;;;;;1.00;0.70;;;8.00;99.90;;;;;;5023843;28;20459;-47
2021/03/27 07:58:04;;;;;;;1.90;0.63;;;8.10;99.90;;;;;;5029120;28;21035;-47
2021/03/27 08:00:44;;;;;;;0.87;0.60;;;7.90;99.90;;;;;;5029199;28;20443;-47
2021/03/27 08:03:49;;;;;;;1.20;0.70;;;8.00;99.90;;;;;;5029607;28;20534;-47
2021/03/27 08:06:33;;;;;;;0.80;0.70;;;8.30;99.90;;;;;;5029070;28;20456;-47
2021/03/27 08:09:13;;;;;;;1.77;0.80;;;8.40;99.90;;;;;;5021935;28;20452;-47
2021/03/27 08:12:01;;;;;;;0.73;0.73;;;8.50;99.90;;;;;;5025242;28;21037;-48
2021/03/27 08:14:50;;;;;;;0.73;0.60;;;8.00;99.90;;;;;;5027078;28;20455;-48
2021/03/27 08:17:44;;;;;;;1.67;0.80;;;7.90;99.90;;;;;;5029399;28;21014;-47
2021/03/27 08:20:49;;;;;;;1.90;1.00;;;8.10;99.90;;;;;;5031417;28;20450;-47
2021/03/27 08:23:46;;;;;;;1.90;1.07;;;8.10;99.90;;;;;;5019690;28;20464;-48
2021/03/27 08:26:43;;;;;;;4.60;1.13;;;8.10;99.90;;;;;;5011114;28;20469;-48
2021/03/27 08:29:49;;;;;;;1.33;0.83;;;8.00;99.90;;;;;;5023090;28;20457;-48
2021/03/27 08:32:32;;;;;;;1.57;0.80;;;8.00;99.90;;;;;;5012172;28;20526;-48
2021/03/27 08:35:24;;;;;;;1.47;0.80;;;7.90;99.90;;;;;;5010864;28;20451;-48
2021/03/27 08:38:22;;;;;;;2.00;0.87;;;8.00;99.90;;;;;;5015724;28;20489;-47
2021/03/27 08:41:26;;;;;;;1.10;0.77;;;7.90;99.90;;;;;;5012178;28;20441;-48
2021/03/27 08:44:55;;;;;;;2.33;0.90;;;7.90;99.90;;;;;;5023401;28;20515;-48
2021/03/27 08:47:43;;;;;;;3.37;1.20;;;8.00;99.90;;;;;;4937865;29;20467;-47
2021/03/27 08:50:58;;;;;;;2.23;0.70;;;8.00;99.90;;;;;;4950185;29;20981;-47
2021/03/27 08:54:07;;;;;;;1.63;1.20;;;7.70;99.90;;;;;;4968793;28;20468;-48
2021/03/27 08:57:14;;;;;;;3.60;0.80;;;8.00;99.90;;;;;;4963234;28;20480;-47
2021/03/27 09:00:19;;;;;;;1.97;1.87;;;8.10;99.90;;;;;;5029735;28;20451;-47
2021/03/27 09:03:11;;;;;;;6.70;1.23;;;8.20;99.90;;;;;;5029904;28;20451;-48
2021/03/27 09:05:56;;;;;;;0.80;0.70;;;8.30;99.90;;;;;;4994780;28;20473;-48
2021/03/27 09:08:31;;;;;;;1.07;0.70;;;8.00;99.90;;;;;;5029992;28;20453;-48
2021/03/27 09:11:20;;;;;;;1.30;0.80;;;8.20;99.90;;;;;;5028460;28;20488;-47
2021/03/27 09:14:13;;;;;;;1.20;1.05;;;8.40;99.90;;;;;;5027280;28;20512;-47
2021/03/27 09:17:06;;;;;;;5.10;4.00;;;8.60;99.90;;;;;;5029527;28;20226;-47
2021/03/27 09:19:58;;;;;;;2.43;1.70;;;8.70;99.90;;;;;;5033588;28;20459;-47
2021/03/27 09:22:41;;;;;;;3.17;1.00;;;8.80;99.90;;;;;;5033050;28;20725;-48
2021/03/27 09:25:27;;;;;;;2.47;0.70;;;9.00;99.90;;;;;;5033532;28;20875;-47
2021/03/27 09:28:17;;;;;;;1.80;0.70;;;9.00;99.90;;;;;;5026882;28;20478;-48
2021/03/27 09:30:56;;;;;;;1.17;0.90;;;9.00;99.90;;;;;;5013760;28;20488;-49
2021/03/27 09:33:27;;;;;;;1.30;0.70;;;9.00;99.90;;;;;;5013842;28;20451;-47
2021/03/27 09:36:23;;;;;;;1.63;0.80;;;8.80;99.90;;;;;;5013267;28;20880;-47
2021/03/27 09:39:12;;;;;;;1.00;0.70;;;9.00;99.90;;;;;;5069912;22;20557;-46
2021/03/27 09:42:01;;;;;;;1.27;0.70;;;8.80;99.90;;;;;;5052683;28;20447;-46
2021/03/27 09:44:40;;;;;;;1.73;0.70;;;8.80;99.90;;;;;;5053184;28;21096;-47
2021/03/27 09:47:26;;;;;;;0.83;0.70;;;8.90;99.90;;;;;;5052986;28;20995;-46
2021/03/27 09:50:03;;;;;;;3.17;1.77;;;9.00;99.90;;;;;;5053056;28;20458;-47
2021/03/27 09:52:40;;;;;;;1.27;1.00;;;8.80;99.90;;;;;;5039712;28;20480;-46
2021/03/27 09:55:49;;;;;;;2.50;1.10;;;8.70;99.90;;;;;;5033314;28;20819;-46
2021/03/27 09:58:41;;;;;;;1.27;1.07;;;8.50;99.90;;;;;;5003481;28;20530;-46
2021/03/27 10:01:22;;;;;;;1.20;1.10;;;8.50;99.90;;;;;;5029134;28;20462;-46
2021/03/27 10:04:02;;;;;;;3.40;1.00;;;8.60;99.90;;;;;;5043963;28;20799;-46
2021/03/27 10:06:46;;;;;;;3.03;1.17;;;8.50;99.90;;;;;;5032852;28;20456;-46
2021/03/27 10:09:46;;;;;;;3.37;1.20;;;8.60;99.90;;;;;;5032877;28;20958;-46
2021/03/27 10:12:16;;;;;;;4.37;1.30;;;8.60;99.90;;;;;;5027361;28;20546;-47
2021/03/27 10:14:51;;;;;;;1.87;1.10;;;8.60;99.90;;;;;;5024600;28;20481;-46
2021/03/27 10:17:28;;;;;;;1.50;1.00;;;8.60;99.90;;;;;;5016978;28;20532;-46
2021/03/27 10:20:05;;;;;;;1.63;1.00;;;8.80;99.90;;;;;;5043011;28;20466;-46
2021/03/27 10:22:41;;;;;;;1.37;1.03;;;8.70;99.90;;;;;;5043189;28;20948;-46
2021/03/27 10:25:17;;;;;;;1.40;1.07;;;8.60;99.90;;;;;;5032810;28;20452;-46
2021/03/27 10:27:52;;;;;;;3.10;1.17;;;8.70;99.90;;;;;;5051712;28;20486;-46
2021/03/27 10:30:24;;;;;;;1.60;1.00;;;8.90;99.90;;;;;;5039295;28;20551;-46
2021/03/27 10:33:08;;;;;;;1.63;0.90;;;8.90;99.90;;;;;;5032581;28;20806;-45
2021/03/27 10:36:04;;;;;;;3.70;1.10;;;9.00;99.90;;;;;;5035818;28;20511;-46
2021/03/27 10:38:47;;;;;;;1.03;0.80;;;9.10;99.90;;;;;;5045233;28;20483;-46
2021/03/27 10:41:17;;;;;;;1.80;0.90;;;9.20;99.90;;;;;;5037427;28;20802;-46
2021/03/27 10:43:49;;;;;;;1.57;1.00;;;9.20;99.90;;;;;;5037680;28;20447;-45
2021/03/27 10:46:26;;;;;;;2.20;1.03;;;9.50;99.90;;;;;;5035225;28;20448;-46
2021/03/27 10:49:21;;;;;;;3.63;1.00;;;9.40;99.90;;;;;;5032110;28;21048;-46
2021/03/27 10:52:25;;;;;;;1.20;1.10;;;9.20;99.90;;;;;;5051970;28;20497;-46
2021/03/27 10:55:45;;;;;;;1.83;0.93;;;9.20;99.90;;;;;;5027878;28;20537;-46
2021/03/27 10:58:32;;;;;;;6.87;0.90;;;9.30;99.90;;;;;;5031510;28;20495;-46
2021/03/27 11:01:38;;;;;;;3.47;1.70;;;9.50;99.90;;;;;;5025022;28;20472;-47
2021/03/27 11:04:50;;;;;;;2.20;1.00;;;9.50;99.90;;;;;;5028427;28;20471;-46
2021/03/27 11:07:54;;;;;;;1.07;0.90;;;9.50;99.90;;;;;;5013288;28;20486;-46
2021/03/27 11:10:50;;;;;;;1.30;1.10;;;9.50;99.90;;;;;;4956466;28;20495;-46
2021/03/27 11:13:55;;;;;;;2.23;1.13;;;9.40;99.90;;;;;;5012264;28;20825;-46
2021/03/27 11:17:04;;;;;;;3.40;1.67;;;9.30;99.90;;;;;;5027758;28;20458;-47
2021/03/27 11:19:49;;;;;;;4.93;1.90;;;9.30;99.90;;;;;;4983541;28;20447;-46
2021/03/27 11:22:29;;;;;;;3.53;2.10;;;9.30;99.90;;;;;;5012312;28;20462;-46
2021/03/27 11:25:34;;;;;;;5.00;1.93;;;9.10;99.90;;;;;;5011838;28;20453;-46
2021/03/27 11:28:12;;;;;;;4.10;1.60;;;9.30;99.90;;;;;;4990984;28;20465;-46
2021/03/27 11:30:46;;;;;;;5.27;2.43;;;9.20;99.90;;;;;;5012035;28;21160;-47
2021/03/27 11:33:25;;;;;;;2.73;1.20;;;9.20;99.90;;;;;;5033985;28;20463;-46
2021/03/27 11:36:02;;;;;;;1.13;1.03;;;9.20;99.90;;;;;;5031390;28;20444;-46
2021/03/27 11:38:36;;;;;;;3.30;0.90;;;9.20;99.90;;;;;;5031169;28;21022;-47
2021/03/27 11:41:07;;;;;;;2.70;0.90;;;9.30;99.90;;;;;;5031730;28;20445;-47
2021/03/27 11:43:48;;;;;;;3.97;1.13;;;9.20;99.90;;;;;;5031992;28;20456;-46
2021/03/27 11:46:24;;;;;;;1.70;1.10;;;9.40;99.90;;;;;;5031274;28;20980;-46
2021/03/27 11:48:54;;;;;;;2.87;1.37;;;9.40;99.90;;;;;;5031571;28;20479;-47
2021/03/27 11:51:28;;;;;;;1.40;1.10;;;9.60;99.90;;;;;;5023480;28;20522;-47
2021/03/27 11:54:09;;;;;;;1.37;1.07;;;9.80;99.90;;;;;;5045478;28;20450;-46
2021/03/27 11:56:45;;;;;;;1.70;1.33;;;9.80;99.90;;;;;;5050882;28;20457;-46
2021/03/27 12:02:58;;;;;;;1.80;0.90;;;10.30;99.90;;;;;;5032799;28;20436;-47
2021/03/27 12:05:32;;;;;;;1.00;0.70;;;10.30;99.90;;;;;;5018130;28;20458;-47
2021/03/27 12:08:14;;;;;;;1.00;0.93;;;10.30;99.90;;;;;;5032121;28;21007;-46
2021/03/27 12:11:03;;;;;;;1.10;0.90;;;10.00;99.90;;;;;;5017242;28;20441;-46
2021/03/27 12:13:39;;;;;;;1.50;1.10;;;9.90;99.90;;;;;;5028057;28;20589;-45
2021/03/27 12:16:20;;;;;;;1.00;0.90;;;9.80;99.90;;;;;;5022462;28;20455;-46
2021/03/27 12:19:13;;;;;;;2.63;1.30;;;10.00;99.90;;;;;;5019361;28;20486;-47
2021/03/27 12:21:46;;;;;;;2.60;1.17;;;9.90;99.90;;;;;;5021890;28;20906;-45
2021/03/27 12:24:25;;;;;;;1.30;1.10;;;10.10;99.90;;;;;;5014678;28;20460;-46
2021/03/27 12:27:02;;;;;;;2.23;1.30;;;10.10;99.90;;;;;;5018867;28;20483;-46
2021/03/27 12:29:40;;;;;;;1.20;1.10;;;10.10;99.90;;;;;;5026627;28;20460;-46
2021/03/27 12:32:27;;;;;;;2.70;1.20;;;10.20;99.90;;;;;;5029756;28;20534;-47
2021/03/27 12:34:59;;;;;;;1.50;1.00;;;10.30;99.90;;;;;;5028552;28;20458;-46
2021/03/27 12:37:31;;;;;;;1.77;1.53;;;10.40;99.90;;;;;;5029257;28;20502;-46
2021/03/27 12:40:05;;;;;;;3.33;1.43;;;10.50;99.90;;;;;;5029433;28;20449;-47
2021/03/27 12:42:37;;;;;;;2.00;1.27;;;10.60;99.90;;;;;;5029302;28;20433;-46
2021/03/27 12:45:11;;;;;;;2.67;1.30;;;10.80;99.90;;;;;;5029596;28;20528;-47
2021/03/27 12:48:04;;;;;;;1.60;1.10;;;10.90;99.90;;;;;;5025466;28;20529;-46
2021/03/27 12:50:36;;;;;;;1.63;1.10;;;11.10;99.90;;;;;;5030034;28;20498;-47
2021/03/27 12:53:38;;;;;;;2.73;1.20;;;11.30;99.90;;;;;;5031576;28;20451;-47
2021/03/27 12:56:17;;;;;;;1.10;1.00;;;11.40;99.90;;;;;;5031290;28;21054;-46
2021/03/27 12:58:50;;;;;;;1.80;1.10;;;11.50;99.90;;;;;;5033304;28;20464;-46
2021/03/27 13:01:49;;;;;;;1.87;1.20;;;11.40;99.90;;;;;;5033046;28;20429;-47
2021/03/27 13:04:59;;;;;;;2.20;1.50;;;11.60;99.90;;;;;;5030479;28;20436;-46
2021/03/27 13:07:33;;;;;;;9.80;1.60;;;11.70;99.90;;;;;;5025535;28;20559;-46
2021/03/27 13:10:23;;;;;;;3.13;1.57;;;11.80;99.90;;;;;;5029026;28;20456;-47
2021/03/27 13:13:10;;;;;;;2.17;1.50;;;11.90;99.90;;;;;;5031872;28;20492;-46
2021/03/27 13:16:05;;;;;;;1.70;1.57;;;11.70;99.90;;;;;;5032779;28;20503;-46
2021/03/27 13:18:55;;;;;;;6.80;1.80;;;11.70;99.90;;;;;;5018993;28;20484;-47
2021/03/27 13:21:30;;;;;;;3.13;1.60;;;11.60;99.90;;;;;;5023200;28;20837;-46
2021/03/27 13:24:02;;;;;;;2.60;1.57;;;11.50;99.90;;;;;;5029387;28;20444;-46
2021/03/27 13:26:31;;;;;;;1.50;1.40;;;11.50;99.90;;;;;;5028613;28;20526;-46
2021/03/27 13:29:04;;;;;;;1.73;1.40;;;11.40;99.90;;;;;;5032285;28;20471;-46
2021/03/27 13:31:40;;;;;;;1.50;1.40;;;11.40;99.90;;;;;;5024658;28;20488;-48
2021/03/27 13:34:15;;;;;;;2.27;1.10;;;11.30;99.90;;;;;;5032731;28;20436;-46
2021/03/27 13:36:46;;;;;;;3.20;1.30;;;11.20;99.90;;;;;;5031095;28;20485;-46
2021/03/27 13:39:37;;;;;;;1.90;1.33;;;11.20;99.90;;;;;;5029699;28;20840;-46
2021/03/27 13:42:25;;;;;;;2.47;1.67;;;11.30;99.90;;;;;;5032415;28;20934;-47
2021/03/27 13:44:58;;;;;;;2.73;1.53;;;11.30;99.90;;;;;;5031723;28;20944;-46
2021/03/27 13:47:39;;;;;;;2.47;1.20;;;11.30;99.90;;;;;;5032347;28;21066;-46
2021/03/27 13:50:23;;;;;;;6.20;1.47;;;11.50;99.90;;;;;;5031196;28;20449;-46
2021/03/27 13:53:27;;;;;;;3.40;1.30;;;11.20;99.90;;;;;;5031440;28;20487;-46
2021/03/27 13:56:02;;;;;;;2.93;1.67;;;11.10;99.90;;;;;;5032422;28;20578;-46
2021/03/27 13:58:35;;;;;;;2.73;1.60;;;11.30;99.90;;;;;;5029122;28;20467;-46
2021/03/27 14:01:09;;;;;;;1.77;1.67;;;11.30;99.90;;;;;;5028770;28;20606;-46
2021/03/27 14:03:48;;;;;;;1.30;1.20;;;11.20;99.90;;;;;;5030376;28;20443;-46
2021/03/27 14:06:24;;;;;;;3.27;1.70;;;11.30;99.90;;;;;;5028663;28;20455;-46
2021/03/27 14:09:23;;;;;;;1.40;1.30;;;11.20;99.90;;;;;;5029200;28;20834;-46
2021/03/27 14:11:57;;;;;;;2.23;1.57;;;11.20;99.90;;;;;;5026227;28;20538;-47
2021/03/27 14:14:29;;;;;;;3.03;1.47;;;11.30;99.90;;;;;;5027887;28;20440;-47
2021/03/27 14:17:25;;;;;;;2.37;1.77;;;11.40;99.90;;;;;;5031519;28;20437;-47
2021/03/27 14:20:02;;;;;;;2.67;1.93;;;11.50;99.90;;;;;;5020468;28;20449;-47
2021/03/27 14:22:43;;;;;;;4.27;1.87;;;11.40;99.90;;;;;;5014176;28;20445;-47
2021/03/27 14:25:26;;;;;;;3.27;1.67;;;11.50;99.90;;;;;;5013264;28;20445;-47
2021/03/27 14:27:59;;;;;;;2.00;1.47;;;11.50;99.90;;;;;;5013287;28;20461;-47
2021/03/27 14:30:47;;;;;;;3.80;1.47;;;11.40;99.90;;;;;;5013495;28;20446;-47